Monte Anaga — EAHA — position and weather

sailwx.info

Track history (hours):
 
Tides and Currents Weather Stations Pressure Air Temp Water Temp Dewpoint Dewpoint Depression Visibility Wind Speed Wind Dir Waves Ship Positions

Monte Anaga

Last reported at 2018-Feb-20 01:00 UTC. Time now 2018-Feb-20 01:22 UTC.
Position N 36°11' W 005°24'.

Length 87 m; draft 3.5 m.

Type: Tanker. MMSI: 225419000.

Date/timePositionNaut miles runAvg speedWind from/ knotsBaromVisibWave heightAir tempDewpointWater temp
2018-Feb-20 01:00N 36°11' W 005°24'0 0.0
2018-Feb-20 00:30N 36°11' W 005°24'0 0.0
2018-Feb-20 00:00N 36°11' W 005°24'0 0.0
2018-Feb-19 23:30N 36°11' W 005°24'0 0.0
2018-Feb-19 23:00N 36°11' W 005°24'0 0.0
2018-Feb-19 22:30N 36°11' W 005°24'0 0.0
2018-Feb-19 22:00N 36°11' W 005°24'0 0.0
2018-Feb-19 21:20N 36°11' W 005°24'0 0.0
2018-Feb-19 20:59N 36°11' W 005°24'0 0.0
2018-Feb-19 20:30N 36°11' W 005°24'0 0.0
2018-Feb-19 20:00N 36°11' W 005°24'0 0.0
2018-Feb-19 19:30N 36°11' W 005°24'0 0.0
2018-Feb-19 19:00N 36°11' W 005°24'0 0.0
2018-Feb-19 18:30N 36°11' W 005°24'0 0.0
2018-Feb-19 18:00N 36°11' W 005°24'0 0.0
2018-Feb-19 17:06N 36°11' W 005°24'0 0.0
2018-Feb-19 17:00N 36°11' W 005°24'0 0.0
2018-Feb-19 16:30N 36°11' W 005°24'0 0.0
2018-Feb-19 15:59N 36°11' W 005°24'0 0.0
2018-Feb-19 15:30N 36°11' W 005°24'0 0.0
2018-Feb-19 15:00N 36°11' W 005°24'0 0.6
2018-Feb-19 14:30N 36°11' W 005°23'3 5.3
2018-Feb-19 14:00N 36°09' W 005°26'0 0.3
2018-Feb-19 13:30N 36°09' W 005°26'0 0.0
2018-Feb-19 13:00N 36°09' W 005°26'0 0.0
2018-Feb-19 12:26N 36°09' W 005°26'0 0.0
2018-Feb-19 12:00N 36°09' W 005°26'0 0.0
2018-Feb-19 11:30N 36°09' W 005°26'0 0.0
2018-Feb-19 11:00N 36°09' W 005°26'0 0.0
2018-Feb-19 09:19N 36°09' W 005°26'0 0.0
2018-Feb-19 09:00N 36°09' W 005°26'  
2018-Feb-15 23:22N 36°10' W 005°23'1 3.9
2018-Feb-15 23:00N 36°10' W 005°25'2 3.4
2018-Feb-15 22:30N 36°08' W 005°26'0 0.0
2018-Feb-15 22:00N 36°08' W 005°26'0 0.0
2018-Feb-15 21:30N 36°08' W 005°26'0 0.0
2018-Feb-15 21:00N 36°08' W 005°26'0 0.0
2018-Feb-15 20:30N 36°08' W 005°26'0 0.0
2018-Feb-15 20:00N 36°08' W 005°26'0 0.0
2018-Feb-15 19:30N 36°08' W 005°26'0 0.0
2018-Feb-15 19:00N 36°08' W 005°26'0 0.0
2018-Feb-15 18:27N 36°08' W 005°26'0 0.0
2018-Feb-15 18:00N 36°08' W 005°26'0 0.0
2018-Feb-15 17:30N 36°08' W 005°26'0 0.0
2018-Feb-15 17:00N 36°08' W 005°26'0 0.0
2018-Feb-15 16:30N 36°08' W 005°26'0 0.0
2018-Feb-15 16:00N 36°08' W 005°26'0 0.0
2018-Feb-15 15:28N 36°08' W 005°26'0 0.0
2018-Feb-15 14:24N 36°08' W 005°26'0 0.0
2018-Feb-15 14:00N 36°08' W 005°26'0 0.2
2018-Feb-15 13:30N 36°08' W 005°26'1 1.3
2018-Feb-15 12:42N 36°09' W 005°26'0 0.0
2018-Feb-15 12:25N 36°09' W 005°26'0 0.1
2018-Feb-15 12:00N 36°09' W 005°26'0 0.0
2018-Feb-15 11:29N 36°09' W 005°26'0 0.0
2018-Feb-15 10:46N 36°09' W 005°26'0 0.0
2018-Feb-15 10:30N 36°09' W 005°26'0 0.0
2018-Feb-15 09:55N 36°09' W 005°26'0 0.1
2018-Feb-15 09:10N 36°09' W 005°26'0 0.1
2018-Feb-15 08:50N 36°09' W 005°26'0 0.0
2018-Feb-15 08:19N 36°09' W 005°26'0 0.0
2018-Feb-15 07:42N 36°09' W 005°26'0 0.0
2018-Feb-15 07:30N 36°09' W 005°26'0 0.0
2018-Feb-15 07:00N 36°09' W 005°26'0 0.0
2018-Feb-15 06:30N 36°09' W 005°26'0 0.0
2018-Feb-15 06:00N 36°09' W 005°26'0 0.0
2018-Feb-15 05:29N 36°09' W 005°26'0 0.0
2018-Feb-15 05:00N 36°09' W 005°26'0 0.0
2018-Feb-15 04:30N 36°09' W 005°26'0 0.0
2018-Feb-15 04:00N 36°09' W 005°26'0 0.0
2018-Feb-15 03:30N 36°09' W 005°26'0 0.0
2018-Feb-15 02:59N 36°09' W 005°26'0 0.0
2018-Feb-15 02:28N 36°09' W 005°26'2 3.2
2018-Feb-15 02:00N 36°10' W 005°24'1 1.6
2018-Feb-15 01:30N 36°11' W 005°24'0 0.0
2018-Feb-15 01:00N 36°11' W 005°24'0 0.0
2018-Feb-15 00:30N 36°11' W 005°24'0 0.0
2018-Feb-15 00:00N 36°11' W 005°24'0 0.0
2018-Feb-14 23:30N 36°11' W 005°24'0 0.0
2018-Feb-14 23:00N 36°11' W 005°24'0 0.0
2018-Feb-14 22:30N 36°11' W 005°24'0 0.0
2018-Feb-14 22:00N 36°11' W 005°24'0 0.0
2018-Feb-14 21:30N 36°11' W 005°24'0 0.0
2018-Feb-14 21:00N 36°11' W 005°24'0 0.0
2018-Feb-14 20:30N 36°11' W 005°24'0 0.0
2018-Feb-14 20:00N 36°11' W 005°24'0 0.0
2018-Feb-14 19:30N 36°11' W 005°24'0 0.0
2018-Feb-14 19:00N 36°11' W 005°24'0 0.6
2018-Feb-14 18:30N 36°10' W 005°23'0 0.5
2018-Feb-14 18:00N 36°10' W 005°23'0 0.0
2018-Feb-14 17:30N 36°10' W 005°23'0 0.0
2018-Feb-14 16:58N 36°10' W 005°23'0 0.0
2018-Feb-14 16:30N 36°10' W 005°23'0 0.0
2018-Feb-14 16:00N 36°10' W 005°23'0 0.1
2018-Feb-14 15:30N 36°10' W 005°23'0 0.0
2018-Feb-14 15:00N 36°10' W 005°23'0 0.1
2018-Feb-14 14:30N 36°10' W 005°23'0 0.1
2018-Feb-14 14:00N 36°10' W 005°23'0 0.0
2018-Feb-14 13:30N 36°10' W 005°23'0 0.1
2018-Feb-14 13:00N 36°10' W 005°23'0 0.0
2018-Feb-14 12:29N 36°10' W 005°23'0 0.0
2018-Feb-14 12:00N 36°10' W 005°23'0 0.0
2018-Feb-14 11:30N 36°10' W 005°23'0 0.0
2018-Feb-14 10:59N 36°10' W 005°23'0 0.0
2018-Feb-14 10:30N 36°10' W 005°23'0 0.0
2018-Feb-14 10:00N 36°10' W 005°23'0 0.0
2018-Feb-14 09:30N 36°10' W 005°23'0 0.0
2018-Feb-14 08:59N 36°10' W 005°23'0 0.0
2018-Feb-14 08:30N 36°10' W 005°23'0 0.0
2018-Feb-14 08:00N 36°10' W 005°23'0 0.1
2018-Feb-14 07:27N 36°10' W 005°23'0 0.0
2018-Feb-14 07:00N 36°10' W 005°23'0 0.0
2018-Feb-14 06:30N 36°10' W 005°23'0 0.4
2018-Feb-14 06:00N 36°10' W 005°23'0 0.7
2018-Feb-14 05:30N 36°11' W 005°24'0 0.0
2018-Feb-14 04:59N 36°11' W 005°24'0 0.0
2018-Feb-14 04:30N 36°11' W 005°24'0 0.0
2018-Feb-14 04:00N 36°11' W 005°24'0 0.0
2018-Feb-14 00:43N 36°11' W 005°24'0 0.0
2018-Feb-14 00:30N 36°11' W 005°24'0 0.0
2018-Feb-13 23:12N 36°11' W 005°24'0 0.0
2018-Feb-13 23:00N 36°11' W 005°24'0 0.0
2018-Feb-13 22:30N 36°11' W 005°24'0 0.0
2018-Feb-13 22:00N 36°11' W 005°24'0 0.0
2018-Feb-13 21:30N 36°11' W 005°24'0 0.0
2018-Feb-13 21:00N 36°11' W 005°24'0 0.0
2018-Feb-13 20:30N 36°11' W 005°24'0 0.0
2018-Feb-13 19:45N 36°11' W 005°24'0 0.1
2018-Feb-13 15:55N 36°11' W 005°23'2 4.2
2018-Feb-13 15:28N 36°09' W 005°25'1 2.4
2018-Feb-13 15:00N 36°09' W 005°26'0 0.0
2018-Feb-13 14:23N 36°09' W 005°26'0 0.0
2018-Feb-13 13:55N 36°09' W 005°26'0 0.0
2018-Feb-13 12:54N 36°09' W 005°26'0 0.0
2018-Feb-13 12:25N 36°09' W 005°26'0 0.0
2018-Feb-13 11:05N 36°09' W 005°26'0 0.0
2018-Feb-13 10:10N 36°09' W 005°26'0 0.0
2018-Feb-13 09:58N 36°09' W 005°26'0 0.0
2018-Feb-13 09:24N 36°09' W 005°26'0 0.0
2018-Feb-13 09:00N 36°09' W 005°26'0 0.2
2018-Feb-13 08:26N 36°09' W 005°26'0 0.0
2018-Feb-13 05:39N 36°09' W 005°26'0 0.0
2018-Feb-13 05:30N 36°09' W 005°26'0 0.0
2018-Feb-13 05:00N 36°09' W 005°26'0 0.0
2018-Feb-13 04:30N 36°09' W 005°26'0 0.0
2018-Feb-13 03:56N 36°09' W 005°26'0 0.0
2018-Feb-13 03:20N 36°09' W 005°26'0 0.0
2018-Feb-13 02:58N 36°09' W 005°26'0 0.0
2018-Feb-13 02:18N 36°09' W 005°26'0 0.0
2018-Feb-13 01:59N 36°09' W 005°26'0 0.0
2018-Feb-13 01:27N 36°09' W 005°26'0 0.0
2018-Feb-13 01:00N 36°09' W 005°26'0 0.0
2018-Feb-13 00:29N 36°09' W 005°26'0 0.0
2018-Feb-13 00:00N 36°09' W 005°26'0 0.0
2018-Feb-12 22:32N 36°09' W 005°26'0 0.1
2018-Feb-12 22:29N 36°09' W 005°26'0 0.0
2018-Feb-12 22:00N 36°09' W 005°26'0 0.0
2018-Feb-12 21:30N 36°09' W 005°26'0 0.0
2018-Feb-12 21:00N 36°09' W 005°26'0 0.0
2018-Feb-12 20:30N 36°09' W 005°26'0 0.1
2018-Feb-12 19:56N 36°09' W 005°26'1 1.2
2018-Feb-12 19:29N 36°08' W 005°26'0 0.2
2018-Feb-12 18:40N 36°08' W 005°26'0 0.0
2018-Feb-12 17:56N 36°08' W 005°26'0 0.0
2018-Feb-12 17:30N 36°08' W 005°26'0 0.0
2018-Feb-12 17:00N 36°08' W 005°26'0 0.0
2018-Feb-12 16:22N 36°08' W 005°26'0 0.0
2018-Feb-12 16:00N 36°08' W 005°26'0 0.0
2018-Feb-12 15:30N 36°08' W 005°26'0 0.0
2018-Feb-12 14:54N 36°08' W 005°26'0 0.0
2018-Feb-12 14:29N 36°08' W 005°26'0 0.0
2018-Feb-12 13:48N 36°08' W 005°26'0 0.0
2018-Feb-12 13:30N 36°08' W 005°26'0 0.0
2018-Feb-12 13:00N 36°08' W 005°26'0 0.0
2018-Feb-12 12:23N 36°08' W 005°26'0 0.0
2018-Feb-12 12:00N 36°08' W 005°26'0 0.0
2018-Feb-12 11:30N 36°08' W 005°26'0 0.0
2018-Feb-12 11:00N 36°08' W 005°26'0 0.0
2018-Feb-12 10:30N 36°08' W 005°26'0 0.0
2018-Feb-12 10:00N 36°08' W 005°26'0 0.0
2018-Feb-12 09:30N 36°08' W 005°26'0 0.6
2018-Feb-12 09:00N 36°09' W 005°26'0 0.1
2018-Feb-12 08:30N 36°09' W 005°26'0 0.0
2018-Feb-12 08:00N 36°09' W 005°26'0 0.0
2018-Feb-12 07:28N 36°09' W 005°26'0 0.0
2018-Feb-12 06:59N 36°09' W 005°26'0 0.0
2018-Feb-12 06:28N 36°09' W 005°26'0 0.0
2018-Feb-12 06:00N 36°09' W 005°26'0 0.0
2018-Feb-12 05:30N 36°09' W 005°26'0 0.0
2018-Feb-12 05:00N 36°09' W 005°26'0 0.0
2018-Feb-12 04:30N 36°09' W 005°26'0 0.0
2018-Feb-12 04:00N 36°09' W 005°26'0 0.0
2018-Feb-12 03:30N 36°09' W 005°26'0 0.0
2018-Feb-12 03:00N 36°09' W 005°26'0 0.0
2018-Feb-12 02:30N 36°09' W 005°26'0 0.0
2018-Feb-12 02:00N 36°09' W 005°26'0 0.0
2018-Feb-12 01:30N 36°09' W 005°26'1 1.2
2018-Feb-12 01:00N 36°09' W 005°26'0 0.3
2018-Feb-12 00:30N 36°09' W 005°26'0 0.0
2018-Feb-12 00:00N 36°09' W 005°26'0 0.0
2018-Feb-11 23:30N 36°09' W 005°26'0 0.1
2018-Feb-11 23:00N 36°09' W 005°26'0 0.1
2018-Feb-11 22:30N 36°09' W 005°26'0 0.1
2018-Feb-11 22:00N 36°09' W 005°26'0 0.1
2018-Feb-11 21:29N 36°09' W 005°26'0 0.1
2018-Feb-11 21:00N 36°09' W 005°26'0 0.0
2018-Feb-11 20:30N 36°09' W 005°26'0 0.1
2018-Feb-11 19:59N 36°09' W 005°26'0 0.1
2018-Feb-11 19:30N 36°09' W 005°26'0 0.0
2018-Feb-11 19:00N 36°09' W 005°26'0 0.0
2018-Feb-11 18:29N 36°09' W 005°26'0 0.1
2018-Feb-11 18:00N 36°09' W 005°26'0 0.0
2018-Feb-11 17:30N 36°09' W 005°26'0 0.0
2018-Feb-11 17:00N 36°09' W 005°26'1 2.3
2018-Feb-11 16:30N 36°10' W 005°25'1 1.5
2018-Feb-11 15:58N 36°11' W 005°24'0 0.0
2018-Feb-11 15:30N 36°11' W 005°24'0 0.0
2018-Feb-11 15:00N 36°11' W 005°24'0 0.0
2018-Feb-11 14:30N 36°11' W 005°24'0 0.0
2018-Feb-11 14:00N 36°11' W 005°24'0 0.0
2018-Feb-11 13:30N 36°11' W 005°24'0 0.0
2018-Feb-11 13:00N 36°11' W 005°24'0 0.0
2018-Feb-11 12:30N 36°11' W 005°24'0 0.0
2018-Feb-11 12:00N 36°11' W 005°24'0 0.0
2018-Feb-11 11:29N 36°11' W 005°24'0 0.0
2018-Feb-11 10:59N 36°11' W 005°24'0 0.0
2018-Feb-11 10:30N 36°11' W 005°24'0 0.0
2018-Feb-11 10:00N 36°11' W 005°24'0 0.0
2018-Feb-11 09:30N 36°11' W 005°24'0 0.0
2018-Feb-11 09:00N 36°11' W 005°24'0 0.0
2018-Feb-11 08:28N 36°11' W 005°24'0 0.0
2018-Feb-11 08:00N 36°11' W 005°24'0 0.0
2018-Feb-11 07:30N 36°11' W 005°24'0 0.0
2018-Feb-11 07:00N 36°11' W 005°24'0 0.0
2018-Feb-11 06:30N 36°11' W 005°24'0 0.0
2018-Feb-11 06:00N 36°11' W 005°24'0 0.0
2018-Feb-11 05:29N 36°11' W 005°24'0 0.0
2018-Feb-11 05:00N 36°11' W 005°24'0 0.0
2018-Feb-11 04:30N 36°11' W 005°24'0 0.0
2018-Feb-11 04:00N 36°11' W 005°24'0 0.0
2018-Feb-11 03:30N 36°11' W 005°24'0 0.0
2018-Feb-11 03:00N 36°11' W 005°24'0 0.0
2018-Feb-11 02:30N 36°11' W 005°24'0 0.7
2018-Feb-11 02:00N 36°11' W 005°24'2 4.9
2018-Feb-11 01:30N 36°08' W 005°25'0 0.9
2018-Feb-11 01:00N 36°08' W 005°25'0 0.0
2018-Feb-11 00:25N 36°08' W 005°25'0 0.0
2018-Feb-10 23:28N 36°08' W 005°25'0 0.0
2018-Feb-10 22:48N 36°08' W 005°25'0 0.0
2018-Feb-10 22:30N 36°08' W 005°25'0 0.0
2018-Feb-10 22:00N 36°08' W 005°25'0 0.0
2018-Feb-10 21:30N 36°08' W 005°25'0 0.0
2018-Feb-10 20:59N 36°08' W 005°25'0 0.0
2018-Feb-10 20:30N 36°08' W 005°25'0 0.0
2018-Feb-10 19:20N 36°08' W 005°25'0 0.0
2018-Feb-10 19:00N 36°08' W 005°25'0 0.0
2018-Feb-10 18:30N 36°08' W 005°25'0 0.0
2018-Feb-10 18:00N 36°08' W 005°25'0 0.0
2018-Feb-10 17:30N 36°08' W 005°25'0 0.0
2018-Feb-10 17:00N 36°08' W 005°25'1 1.5
2018-Feb-10 16:30N 36°08' W 005°25'1 2.2
2018-Feb-10 16:00N 36°09' W 005°26'0 0.1
2018-Feb-10 15:30N 36°09' W 005°26'0 0.0
2018-Feb-10 15:00N 36°09' W 005°26'0 0.0
2018-Feb-10 14:29N 36°09' W 005°26'0 0.0
2018-Feb-10 13:59N 36°09' W 005°26'0 0.0
2018-Feb-10 13:29N 36°09' W 005°26'0 0.0
2018-Feb-10 13:00N 36°09' W 005°26'0 0.0
2018-Feb-10 12:30N 36°09' W 005°26'0 0.0
2018-Feb-10 12:00N 36°09' W 005°26'0 0.0
2018-Feb-10 11:30N 36°09' W 005°26'0 0.0
2018-Feb-10 11:00N 36°09' W 005°26'0 0.0
2018-Feb-10 10:30N 36°09' W 005°26'0 0.0
2018-Feb-10 09:58N 36°09' W 005°26'0 0.0
2018-Feb-10 09:29N 36°09' W 005°26'0 0.0
2018-Feb-10 09:00N 36°09' W 005°26'0 0.0
2018-Feb-10 08:29N 36°09' W 005°26'0 0.0
2018-Feb-10 08:00N 36°09' W 005°26'0 0.0
2018-Feb-10 07:30N 36°09' W 005°26'0 0.0
2018-Feb-10 07:00N 36°09' W 005°26'0 0.0
2018-Feb-10 06:30N 36°09' W 005°26'0 0.0
2018-Feb-10 06:00N 36°09' W 005°26'0 0.0
2018-Feb-10 05:30N 36°09' W 005°26'0 0.1
2018-Feb-10 05:00N 36°09' W 005°26'0 0.1
2018-Feb-10 04:30N 36°09' W 005°26'0 0.9
2018-Feb-10 04:00N 36°10' W 005°26'2 3.3
2018-Feb-10 03:30N 36°11' W 005°24'0 0.0
2018-Feb-10 03:00N 36°11' W 005°24'0 0.0
2018-Feb-10 02:30N 36°11' W 005°24'0 0.0
2018-Feb-10 02:00N 36°11' W 005°24'0 0.0
2018-Feb-10 01:30N 36°11' W 005°24'0 0.0
2018-Feb-10 01:00N 36°11' W 005°24'  
Track history (hours):
 
Tides and Currents Weather Stations Pressure Air Temp Water Temp Dewpoint Dewpoint Depression Visibility Wind Speed Wind Dir Waves Ship Positions

Monte Anaga

Last reported at 2018-Feb-20 01:00 UTC. Time now 2018-Feb-20 01:22 UTC.
Position N 36°11' W 005°24'.

Length 87 m; draft 3.5 m.

Type: Tanker. MMSI: 225419000.

Date/timePositionNaut miles runAvg speedWind from/ knotsBaromVisibWave heightAir tempDewpointWater temp
2018-Feb-20 01:00N 36°11' W 005°24'0 0.0
2018-Feb-20 00:30N 36°11' W 005°24'0 0.0
2018-Feb-20 00:00N 36°11' W 005°24'0 0.0
2018-Feb-19 23:30N 36°11' W 005°24'0 0.0
2018-Feb-19 23:00N 36°11' W 005°24'0 0.0
2018-Feb-19 22:30N 36°11' W 005°24'0 0.0
2018-Feb-19 22:00N 36°11' W 005°24'0 0.0
2018-Feb-19 21:20N 36°11' W 005°24'0 0.0
2018-Feb-19 20:59N 36°11' W 005°24'0 0.0
2018-Feb-19 20:30N 36°11' W 005°24'0 0.0
2018-Feb-19 20:00N 36°11' W 005°24'0 0.0
2018-Feb-19 19:30N 36°11' W 005°24'0 0.0
2018-Feb-19 19:00N 36°11' W 005°24'0 0.0
2018-Feb-19 18:30N 36°11' W 005°24'0 0.0
2018-Feb-19 18:00N 36°11' W 005°24'0 0.0
2018-Feb-19 17:06N 36°11' W 005°24'0 0.0
2018-Feb-19 17:00N 36°11' W 005°24'0 0.0
2018-Feb-19 16:30N 36°11' W 005°24'0 0.0
2018-Feb-19 15:59N 36°11' W 005°24'0 0.0
2018-Feb-19 15:30N 36°11' W 005°24'0 0.0
2018-Feb-19 15:00N 36°11' W 005°24'0 0.6
2018-Feb-19 14:30N 36°11' W 005°23'3 5.3
2018-Feb-19 14:00N 36°09' W 005°26'0 0.3
2018-Feb-19 13:30N 36°09' W 005°26'0 0.0
2018-Feb-19 13:00N 36°09' W 005°26'0 0.0
2018-Feb-19 12:26N 36°09' W 005°26'0 0.0
2018-Feb-19 12:00N 36°09' W 005°26'0 0.0
2018-Feb-19 11:30N 36°09' W 005°26'0 0.0
2018-Feb-19 11:00N 36°09' W 005°26'0 0.0
2018-Feb-19 09:19N 36°09' W 005°26'0 0.0
2018-Feb-19 09:00N 36°09' W 005°26'  
2018-Feb-15 23:22N 36°10' W 005°23'1 3.9
2018-Feb-15 23:00N 36°10' W 005°25'2 3.4
2018-Feb-15 22:30N 36°08' W 005°26'0 0.0
2018-Feb-15 22:00N 36°08' W 005°26'0 0.0
2018-Feb-15 21:30N 36°08' W 005°26'0 0.0
2018-Feb-15 21:00N 36°08' W 005°26'0 0.0
2018-Feb-15 20:30N 36°08' W 005°26'0 0.0
2018-Feb-15 20:00N 36°08' W 005°26'0 0.0
2018-Feb-15 19:30N 36°08' W 005°26'0 0.0
2018-Feb-15 19:00N 36°08' W 005°26'0 0.0
2018-Feb-15 18:27N 36°08' W 005°26'0 0.0
2018-Feb-15 18:00N 36°08' W 005°26'0 0.0
2018-Feb-15 17:30N 36°08' W 005°26'0 0.0
2018-Feb-15 17:00N 36°08' W 005°26'0 0.0
2018-Feb-15 16:30N 36°08' W 005°26'0 0.0
2018-Feb-15 16:00N 36°08' W 005°26'0 0.0
2018-Feb-15 15:28N 36°08' W 005°26'0 0.0
2018-Feb-15 14:24N 36°08' W 005°26'0 0.0
2018-Feb-15 14:00N 36°08' W 005°26'0 0.2
2018-Feb-15 13:30N 36°08' W 005°26'1 1.3
2018-Feb-15 12:42N 36°09' W 005°26'0 0.0
2018-Feb-15 12:25N 36°09' W 005°26'0 0.1
2018-Feb-15 12:00N 36°09' W 005°26'0 0.0
2018-Feb-15 11:29N 36°09' W 005°26'0 0.0
2018-Feb-15 10:46N 36°09' W 005°26'0 0.0
2018-Feb-15 10:30N 36°09' W 005°26'0 0.0
2018-Feb-15 09:55N 36°09' W 005°26'0 0.1
2018-Feb-15 09:10N 36°09' W 005°26'0 0.1
2018-Feb-15 08:50N 36°09' W 005°26'0 0.0
2018-Feb-15 08:19N 36°09' W 005°26'0 0.0
2018-Feb-15 07:42N 36°09' W 005°26'0 0.0
2018-Feb-15 07:30N 36°09' W 005°26'0 0.0
2018-Feb-15 07:00N 36°09' W 005°26'0 0.0
2018-Feb-15 06:30N 36°09' W 005°26'0 0.0
2018-Feb-15 06:00N 36°09' W 005°26'0 0.0
2018-Feb-15 05:29N 36°09' W 005°26'0 0.0
2018-Feb-15 05:00N 36°09' W 005°26'0 0.0
2018-Feb-15 04:30N 36°09' W 005°26'0 0.0
2018-Feb-15 04:00N 36°09' W 005°26'0 0.0
2018-Feb-15 03:30N 36°09' W 005°26'0 0.0
2018-Feb-15 02:59N 36°09' W 005°26'0 0.0
2018-Feb-15 02:28N 36°09' W 005°26'2 3.2
2018-Feb-15 02:00N 36°10' W 005°24'1 1.6
2018-Feb-15 01:30N 36°11' W 005°24'0 0.0
2018-Feb-15 01:00N 36°11' W 005°24'0 0.0
2018-Feb-15 00:30N 36°11' W 005°24'0 0.0
2018-Feb-15 00:00N 36°11' W 005°24'0 0.0
2018-Feb-14 23:30N 36°11' W 005°24'0 0.0
2018-Feb-14 23:00N 36°11' W 005°24'0 0.0
2018-Feb-14 22:30N 36°11' W 005°24'0 0.0
2018-Feb-14 22:00N 36°11' W 005°24'0 0.0
2018-Feb-14 21:30N 36°11' W 005°24'0 0.0
2018-Feb-14 21:00N 36°11' W 005°24'0 0.0
2018-Feb-14 20:30N 36°11' W 005°24'0 0.0
2018-Feb-14 20:00N 36°11' W 005°24'0 0.0
2018-Feb-14 19:30N 36°11' W 005°24'0 0.0
2018-Feb-14 19:00N 36°11' W 005°24'0 0.6
2018-Feb-14 18:30N 36°10' W 005°23'0 0.5
2018-Feb-14 18:00N 36°10' W 005°23'0 0.0
2018-Feb-14 17:30N 36°10' W 005°23'0 0.0
2018-Feb-14 16:58N 36°10' W 005°23'0 0.0
2018-Feb-14 16:30N 36°10' W 005°23'0 0.0
2018-Feb-14 16:00N 36°10' W 005°23'0 0.1
2018-Feb-14 15:30N 36°10' W 005°23'0 0.0
2018-Feb-14 15:00N 36°10' W 005°23'0 0.1
2018-Feb-14 14:30N 36°10' W 005°23'0 0.1
2018-Feb-14 14:00N 36°10' W 005°23'0 0.0
2018-Feb-14 13:30N 36°10' W 005°23'0 0.1
2018-Feb-14 13:00N 36°10' W 005°23'0 0.0
2018-Feb-14 12:29N 36°10' W 005°23'0 0.0
2018-Feb-14 12:00N 36°10' W 005°23'0 0.0
2018-Feb-14 11:30N 36°10' W 005°23'0 0.0
2018-Feb-14 10:59N 36°10' W 005°23'0 0.0
2018-Feb-14 10:30N 36°10' W 005°23'0 0.0
2018-Feb-14 10:00N 36°10' W 005°23'0 0.0
2018-Feb-14 09:30N 36°10' W 005°23'0 0.0
2018-Feb-14 08:59N 36°10' W 005°23'0 0.0
2018-Feb-14 08:30N 36°10' W 005°23'0 0.0
2018-Feb-14 08:00N 36°10' W 005°23'0 0.1
2018-Feb-14 07:27N 36°10' W 005°23'0 0.0
2018-Feb-14 07:00N 36°10' W 005°23'0 0.0
2018-Feb-14 06:30N 36°10' W 005°23'0 0.4
2018-Feb-14 06:00N 36°10' W 005°23'0 0.7
2018-Feb-14 05:30N 36°11' W 005°24'0 0.0
2018-Feb-14 04:59N 36°11' W 005°24'0 0.0
2018-Feb-14 04:30N 36°11' W 005°24'0 0.0
2018-Feb-14 04:00N 36°11' W 005°24'0 0.0
2018-Feb-14 00:43N 36°11' W 005°24'0 0.0
2018-Feb-14 00:30N 36°11' W 005°24'0 0.0
2018-Feb-13 23:12N 36°11' W 005°24'0 0.0
2018-Feb-13 23:00N 36°11' W 005°24'0 0.0
2018-Feb-13 22:30N 36°11' W 005°24'0 0.0
2018-Feb-13 22:00N 36°11' W 005°24'0 0.0
2018-Feb-13 21:30N 36°11' W 005°24'0 0.0
2018-Feb-13 21:00N 36°11' W 005°24'0 0.0
2018-Feb-13 20:30N 36°11' W 005°24'0 0.0
2018-Feb-13 19:45N 36°11' W 005°24'0 0.1
2018-Feb-13 15:55N 36°11' W 005°23'2 4.2
2018-Feb-13 15:28N 36°09' W 005°25'1 2.4
2018-Feb-13 15:00N 36°09' W 005°26'0 0.0
2018-Feb-13 14:23N 36°09' W 005°26'0 0.0
2018-Feb-13 13:55N 36°09' W 005°26'0 0.0
2018-Feb-13 12:54N 36°09' W 005°26'0 0.0
2018-Feb-13 12:25N 36°09' W 005°26'0 0.0
2018-Feb-13 11:05N 36°09' W 005°26'0 0.0
2018-Feb-13 10:10N 36°09' W 005°26'0 0.0
2018-Feb-13 09:58N 36°09' W 005°26'0 0.0
2018-Feb-13 09:24N 36°09' W 005°26'0 0.0
2018-Feb-13 09:00N 36°09' W 005°26'0 0.2
2018-Feb-13 08:26N 36°09' W 005°26'0 0.0
2018-Feb-13 05:39N 36°09' W 005°26'0 0.0
2018-Feb-13 05:30N 36°09' W 005°26'0 0.0
2018-Feb-13 05:00N 36°09' W 005°26'0 0.0
2018-Feb-13 04:30N 36°09' W 005°26'0 0.0
2018-Feb-13 03:56N 36°09' W 005°26'0 0.0
2018-Feb-13 03:20N 36°09' W 005°26'0 0.0
2018-Feb-13 02:58N 36°09' W 005°26'0 0.0
2018-Feb-13 02:18N 36°09' W 005°26'0 0.0
2018-Feb-13 01:59N 36°09' W 005°26'0 0.0
2018-Feb-13 01:27N 36°09' W 005°26'0 0.0
2018-Feb-13 01:00N 36°09' W 005°26'0 0.0
2018-Feb-13 00:29N 36°09' W 005°26'0 0.0
2018-Feb-13 00:00N 36°09' W 005°26'0 0.0
2018-Feb-12 22:32N 36°09' W 005°26'0 0.1
2018-Feb-12 22:29N 36°09' W 005°26'0 0.0
2018-Feb-12 22:00N 36°09' W 005°26'0 0.0
2018-Feb-12 21:30N 36°09' W 005°26'0 0.0
2018-Feb-12 21:00N 36°09' W 005°26'0 0.0
2018-Feb-12 20:30N 36°09' W 005°26'0 0.1
2018-Feb-12 19:56N 36°09' W 005°26'1 1.2
2018-Feb-12 19:29N 36°08' W 005°26'0 0.2
2018-Feb-12 18:40N 36°08' W 005°26'0 0.0
2018-Feb-12 17:56N 36°08' W 005°26'0 0.0
2018-Feb-12 17:30N 36°08' W 005°26'0 0.0
2018-Feb-12 17:00N 36°08' W 005°26'0 0.0
2018-Feb-12 16:22N 36°08' W 005°26'0 0.0
2018-Feb-12 16:00N 36°08' W 005°26'0 0.0
2018-Feb-12 15:30N 36°08' W 005°26'0 0.0
2018-Feb-12 14:54N 36°08' W 005°26'0 0.0
2018-Feb-12 14:29N 36°08' W 005°26'0 0.0
2018-Feb-12 13:48N 36°08' W 005°26'0 0.0
2018-Feb-12 13:30N 36°08' W 005°26'0 0.0
2018-Feb-12 13:00N 36°08' W 005°26'0 0.0
2018-Feb-12 12:23N 36°08' W 005°26'0 0.0
2018-Feb-12 12:00N 36°08' W 005°26'0 0.0
2018-Feb-12 11:30N 36°08' W 005°26'0 0.0
2018-Feb-12 11:00N 36°08' W 005°26'0 0.0
2018-Feb-12 10:30N 36°08' W 005°26'0 0.0
2018-Feb-12 10:00N 36°08' W 005°26'0 0.0
2018-Feb-12 09:30N 36°08' W 005°26'0 0.6
2018-Feb-12 09:00N 36°09' W 005°26'0 0.1
2018-Feb-12 08:30N 36°09' W 005°26'0 0.0
2018-Feb-12 08:00N 36°09' W 005°26'0 0.0
2018-Feb-12 07:28N 36°09' W 005°26'0 0.0
2018-Feb-12 06:59N 36°09' W 005°26'0 0.0
2018-Feb-12 06:28N 36°09' W 005°26'0 0.0
2018-Feb-12 06:00N 36°09' W 005°26'0 0.0
2018-Feb-12 05:30N 36°09' W 005°26'0 0.0
2018-Feb-12 05:00N 36°09' W 005°26'0 0.0
2018-Feb-12 04:30N 36°09' W 005°26'0 0.0
2018-Feb-12 04:00N 36°09' W 005°26'0 0.0
2018-Feb-12 03:30N 36°09' W 005°26'0 0.0
2018-Feb-12 03:00N 36°09' W 005°26'0 0.0
2018-Feb-12 02:30N 36°09' W 005°26'0 0.0
2018-Feb-12 02:00N 36°09' W 005°26'0 0.0
2018-Feb-12 01:30N 36°09' W 005°26'1 1.2
2018-Feb-12 01:00N 36°09' W 005°26'0 0.3
2018-Feb-12 00:30N 36°09' W 005°26'0 0.0
2018-Feb-12 00:00N 36°09' W 005°26'0 0.0
2018-Feb-11 23:30N 36°09' W 005°26'0 0.1
2018-Feb-11 23:00N 36°09' W 005°26'0 0.1
2018-Feb-11 22:30N 36°09' W 005°26'0 0.1
2018-Feb-11 22:00N 36°09' W 005°26'0 0.1
2018-Feb-11 21:29N 36°09' W 005°26'0 0.1
2018-Feb-11 21:00N 36°09' W 005°26'0 0.0
2018-Feb-11 20:30N 36°09' W 005°26'0 0.1
2018-Feb-11 19:59N 36°09' W 005°26'0 0.1
2018-Feb-11 19:30N 36°09' W 005°26'0 0.0
2018-Feb-11 19:00N 36°09' W 005°26'0 0.0
2018-Feb-11 18:29N 36°09' W 005°26'0 0.1
2018-Feb-11 18:00N 36°09' W 005°26'0 0.0
2018-Feb-11 17:30N 36°09' W 005°26'0 0.0
2018-Feb-11 17:00N 36°09' W 005°26'1 2.3
2018-Feb-11 16:30N 36°10' W 005°25'1 1.5
2018-Feb-11 15:58N 36°11' W 005°24'0 0.0
2018-Feb-11 15:30N 36°11' W 005°24'0 0.0
2018-Feb-11 15:00N 36°11' W 005°24'0 0.0
2018-Feb-11 14:30N 36°11' W 005°24'0 0.0
2018-Feb-11 14:00N 36°11' W 005°24'0 0.0
2018-Feb-11 13:30N 36°11' W 005°24'0 0.0
2018-Feb-11 13:00N 36°11' W 005°24'0 0.0
2018-Feb-11 12:30N 36°11' W 005°24'0 0.0
2018-Feb-11 12:00N 36°11' W 005°24'0 0.0
2018-Feb-11 11:29N 36°11' W 005°24'0 0.0
2018-Feb-11 10:59N 36°11' W 005°24'0 0.0
2018-Feb-11 10:30N 36°11' W 005°24'0 0.0
2018-Feb-11 10:00N 36°11' W 005°24'0 0.0
2018-Feb-11 09:30N 36°11' W 005°24'0 0.0
2018-Feb-11 09:00N 36°11' W 005°24'0 0.0
2018-Feb-11 08:28N 36°11' W 005°24'0 0.0
2018-Feb-11 08:00N 36°11' W 005°24'0 0.0
2018-Feb-11 07:30N 36°11' W 005°24'0 0.0
2018-Feb-11 07:00N 36°11' W 005°24'0 0.0
2018-Feb-11 06:30N 36°11' W 005°24'0 0.0
2018-Feb-11 06:00N 36°11' W 005°24'0 0.0
2018-Feb-11 05:29N 36°11' W 005°24'0 0.0
2018-Feb-11 05:00N 36°11' W 005°24'0 0.0
2018-Feb-11 04:30N 36°11' W 005°24'0 0.0
2018-Feb-11 04:00N 36°11' W 005°24'0 0.0
2018-Feb-11 03:30N 36°11' W 005°24'0 0.0
2018-Feb-11 03:00N 36°11' W 005°24'0 0.0
2018-Feb-11 02:30N 36°11' W 005°24'0 0.7
2018-Feb-11 02:00N 36°11' W 005°24'2 4.9
2018-Feb-11 01:30N 36°08' W 005°25'0 0.9
2018-Feb-11 01:00N 36°08' W 005°25'0 0.0
2018-Feb-11 00:25N 36°08' W 005°25'0 0.0
2018-Feb-10 23:28N 36°08' W 005°25'0 0.0
2018-Feb-10 22:48N 36°08' W 005°25'0 0.0
2018-Feb-10 22:30N 36°08' W 005°25'0 0.0
2018-Feb-10 22:00N 36°08' W 005°25'0 0.0
2018-Feb-10 21:30N 36°08' W 005°25'0 0.0
2018-Feb-10 20:59N 36°08' W 005°25'0 0.0
2018-Feb-10 20:30N 36°08' W 005°25'0 0.0
2018-Feb-10 19:20N 36°08' W 005°25'0 0.0
2018-Feb-10 19:00N 36°08' W 005°25'0 0.0
2018-Feb-10 18:30N 36°08' W 005°25'0 0.0
2018-Feb-10 18:00N 36°08' W 005°25'0 0.0
2018-Feb-10 17:30N 36°08' W 005°25'0 0.0
2018-Feb-10 17:00N 36°08' W 005°25'1 1.5
2018-Feb-10 16:30N 36°08' W 005°25'1 2.2
2018-Feb-10 16:00N 36°09' W 005°26'0 0.1
2018-Feb-10 15:30N 36°09' W 005°26'0 0.0
2018-Feb-10 15:00N 36°09' W 005°26'0 0.0
2018-Feb-10 14:29N 36°09' W 005°26'0 0.0
2018-Feb-10 13:59N 36°09' W 005°26'0 0.0
2018-Feb-10 13:29N 36°09' W 005°26'0 0.0
2018-Feb-10 13:00N 36°09' W 005°26'0 0.0
2018-Feb-10 12:30N 36°09' W 005°26'0 0.0
2018-Feb-10 12:00N 36°09' W 005°26'0 0.0
2018-Feb-10 11:30N 36°09' W 005°26'0 0.0
2018-Feb-10 11:00N 36°09' W 005°26'0 0.0
2018-Feb-10 10:30N 36°09' W 005°26'0 0.0
2018-Feb-10 09:58N 36°09' W 005°26'0 0.0
2018-Feb-10 09:29N 36°09' W 005°26'0 0.0
2018-Feb-10 09:00N 36°09' W 005°26'0 0.0
2018-Feb-10 08:29N 36°09' W 005°26'0 0.0
2018-Feb-10 08:00N 36°09' W 005°26'0 0.0
2018-Feb-10 07:30N 36°09' W 005°26'0 0.0
2018-Feb-10 07:00N 36°09' W 005°26'0 0.0
2018-Feb-10 06:30N 36°09' W 005°26'0 0.0
2018-Feb-10 06:00N 36°09' W 005°26'0 0.0
2018-Feb-10 05:30N 36°09' W 005°26'0 0.1
2018-Feb-10 05:00N 36°09' W 005°26'0 0.1
2018-Feb-10 04:30N 36°09' W 005°26'0 0.9
2018-Feb-10 04:00N 36°10' W 005°26'2 3.3
2018-Feb-10 03:30N 36°11' W 005°24'0 0.0
2018-Feb-10 03:00N 36°11' W 005°24'0 0.0
2018-Feb-10 02:30N 36°11' W 005°24'0 0.0
2018-Feb-10 02:00N 36°11' W 005°24'0 0.0
2018-Feb-10 01:30N 36°11' W 005°24'0 0.0
2018-Feb-10 01:00N 36°11' W 005°24'  

Dump ship's entire track history